createdAt,value
2023-09-27T00:00:04.592Z,20.60
2023-09-27T00:00:14.641Z,19.90
2023-09-27T00:00:24.706Z,19.90
2023-09-27T00:00:34.748Z,19.40
2023-09-27T00:00:44.789Z,19.70
2023-09-27T00:00:54.807Z,20.80
2023-09-27T00:01:04.836Z,21.50
2023-09-27T00:01:14.900Z,21.60
2023-09-27T00:01:24.976Z,20.40
2023-09-27T00:01:35.056Z,20.10
2023-09-27T00:01:45.156Z,20.10
2023-09-27T00:01:55.280Z,20.60
2023-09-27T00:02:05.352Z,20.50
2023-09-27T00:02:15.468Z,21.40
2023-09-27T00:02:25.470Z,20.90
2023-09-27T00:02:35.551Z,20.60
2023-09-27T00:02:45.668Z,19.90
2023-09-27T00:02:55.692Z,19.40
2023-09-27T00:03:05.656Z,19.40
2023-09-27T00:03:15.777Z,18.70
2023-09-27T00:03:25.864Z,19.30
2023-09-27T00:03:35.924Z,18.70
2023-09-27T00:03:45.932Z,19.70
2023-09-27T00:03:55.976Z,19.20
2023-09-27T00:04:06.005Z,19.50
2023-09-27T00:04:16.038Z,18.90
2023-09-27T00:04:26.073Z,19.50
2023-09-27T00:04:36.232Z,20.20
2023-09-27T00:04:46.286Z,20.40
2023-09-27T00:04:56.407Z,20.00
2023-09-27T00:05:06.510Z,19.60
2023-09-27T00:05:16.620Z,19.60
2023-09-27T00:05:27.368Z,19.90
2023-09-27T00:05:36.916Z,20.20
2023-09-27T00:05:47.009Z,21.00
2023-09-27T00:05:57.131Z,21.30
2023-09-27T00:06:07.225Z,21.20
2023-09-27T00:06:17.260Z,20.50
2023-09-27T00:06:27.298Z,20.10
2023-09-27T00:06:37.341Z,20.20
2023-09-27T00:06:47.426Z,20.10
2023-09-27T00:06:57.499Z,20.20
2023-09-27T00:07:07.579Z,20.50
2023-09-27T00:07:17.673Z,20.70
2023-09-27T00:07:27.748Z,21.10
2023-09-27T00:07:37.879Z,20.10
2023-09-27T00:07:48.036Z,20.10
2023-09-27T00:07:57.985Z,19.50
2023-09-27T00:08:08.067Z,20.30
2023-09-27T00:08:18.097Z,20.40
2023-09-27T00:08:28.151Z,20.60
2023-09-27T00:08:38.256Z,21.50
2023-09-27T00:08:48.281Z,22.20
2023-09-27T00:08:58.311Z,22.60
2023-09-27T00:09:08.341Z,21.90
2023-09-27T00:09:18.394Z,21.10
2023-09-27T00:09:28.426Z,21.00
2023-09-27T00:09:38.473Z,20.70
2023-09-27T00:09:48.514Z,20.70
2023-09-27T00:09:58.590Z,19.90
2023-09-27T00:10:08.629Z,19.80
2023-09-27T00:10:18.674Z,20.00
2023-09-27T00:10:28.779Z,20.80
2023-09-27T00:10:38.821Z,21.00
2023-09-27T00:10:49.064Z,20.50
2023-09-27T00:10:59.136Z,20.70
2023-09-27T00:11:09.196Z,20.60
2023-09-27T00:11:19.337Z,20.50
2023-09-27T00:11:29.438Z,20.30
2023-09-27T00:11:39.430Z,20.40
2023-09-27T00:11:49.503Z,20.70
2023-09-27T00:11:59.529Z,20.60
2023-09-27T00:12:09.569Z,21.00
2023-09-27T00:12:19.614Z,21.50
2023-09-27T00:12:29.671Z,20.70
2023-09-27T00:12:39.773Z,20.50
2023-09-27T00:12:49.815Z,20.00
2023-09-27T00:12:59.830Z,20.30
2023-09-27T00:13:09.858Z,20.60
2023-09-27T00:13:19.890Z,20.50
2023-09-27T00:13:29.934Z,20.60
2023-09-27T00:13:40.010Z,20.30
2023-09-27T00:13:50.060Z,20.60
2023-09-27T00:14:00.131Z,21.00
2023-09-27T00:14:10.216Z,21.10
2023-09-27T00:14:20.251Z,21.90
2023-09-27T00:14:30.281Z,21.80
2023-09-27T00:14:40.312Z,22.10
2023-09-27T00:14:50.361Z,21.60
2023-09-27T00:15:00.441Z,21.90
2023-09-27T00:15:10.451Z,21.40
2023-09-27T00:15:20.483Z,20.40
2023-09-27T00:15:30.512Z,20.60
2023-09-27T00:15:40.570Z,20.80
2023-09-27T00:15:50.586Z,21.70
2023-09-27T00:16:00.675Z,20.90
2023-09-27T00:16:10.828Z,21.00
2023-09-27T00:16:20.849Z,19.90
2023-09-27T00:16:30.909Z,20.30
2023-09-27T00:16:40.972Z,19.60
2023-09-27T00:16:51.345Z,20.00
2023-09-27T00:17:01.109Z,20.30
2023-09-27T00:17:11.160Z,20.80
2023-09-27T00:17:21.185Z,21.50
2023-09-27T00:17:31.271Z,20.70
2023-09-27T00:17:41.417Z,20.90
2023-09-27T00:17:51.510Z,20.90
2023-09-27T00:18:01.516Z,21.40
2023-09-27T00:18:11.570Z,20.70
2023-09-27T00:18:21.588Z,20.10
2023-09-27T00:18:31.585Z,19.50
2023-09-27T00:18:41.618Z,20.10
2023-09-27T00:18:51.647Z,20.50
2023-09-27T00:19:01.693Z,21.20
2023-09-27T00:19:11.742Z,21.70
2023-09-27T00:19:21.794Z,21.70
2023-09-27T00:19:31.805Z,21.20
2023-09-27T00:19:41.848Z,21.50
2023-09-27T00:19:51.953Z,22.00
2023-09-27T00:20:01.997Z,22.50
2023-09-27T00:20:12.177Z,21.30
2023-09-27T00:20:22.086Z,20.60
2023-09-27T00:20:32.117Z,20.40
2023-09-27T00:20:42.149Z,21.20
2023-09-27T00:20:52.170Z,21.40
2023-09-27T00:21:02.233Z,21.60
2023-09-27T00:21:12.238Z,21.50
2023-09-27T00:21:22.265Z,21.60
2023-09-27T00:21:32.290Z,22.00
2023-09-27T00:21:42.337Z,22.50
2023-09-27T00:21:52.352Z,23.00
2023-09-27T00:22:02.395Z,22.60
2023-09-27T00:22:12.432Z,22.20
2023-09-27T00:22:22.464Z,21.70
2023-09-27T00:22:32.521Z,21.30
2023-09-27T00:22:42.557Z,20.90
2023-09-27T00:22:52.605Z,21.50
2023-09-27T00:23:02.636Z,21.30
2023-09-27T00:23:12.724Z,22.00
2023-09-27T00:23:22.835Z,21.60
2023-09-27T00:23:32.890Z,21.50
2023-09-27T00:23:42.912Z,21.00
2023-09-27T00:23:52.920Z,21.00
2023-09-27T00:24:02.967Z,21.60
2023-09-27T00:24:13.014Z,22.00
2023-09-27T00:24:23.057Z,22.10
2023-09-27T00:24:33.091Z,22.10
2023-09-27T00:24:43.098Z,21.60
2023-09-27T00:24:53.135Z,21.00
2023-09-27T00:25:03.171Z,20.70
2023-09-27T00:25:13.191Z,20.00
2023-09-27T00:25:23.219Z,20.70
2023-09-27T00:25:33.369Z,20.70
2023-09-27T00:25:43.396Z,21.80
2023-09-27T00:25:53.436Z,21.50
2023-09-27T00:26:03.499Z,21.50
2023-09-27T00:26:13.543Z,21.10
2023-09-27T00:26:23.568Z,21.40
2023-09-27T00:26:33.579Z,21.70
2023-09-27T00:26:43.625Z,21.70
2023-09-27T00:26:53.617Z,21.90
2023-09-27T00:27:03.646Z,21.30
2023-09-27T00:27:13.661Z,20.90
2023-09-27T00:27:23.693Z,21.00
2023-09-27T00:27:33.729Z,21.30
2023-09-27T00:27:43.797Z,21.70
2023-09-27T00:27:53.831Z,21.00
2023-09-27T00:28:03.879Z,21.80
2023-09-27T00:28:13.917Z,22.10
2023-09-27T00:28:23.938Z,21.50
2023-09-27T00:28:33.955Z,20.40
2023-09-27T00:28:43.995Z,19.40
2023-09-27T00:28:54.216Z,19.70
2023-09-27T00:29:04.112Z,20.40
2023-09-27T00:29:14.187Z,21.10
2023-09-27T00:29:24.245Z,22.00
2023-09-27T00:29:34.314Z,22.10
2023-09-27T00:29:44.339Z,22.40
2023-09-27T00:29:54.371Z,22.40
2023-09-27T00:30:04.432Z,22.50
2023-09-27T00:30:14.589Z,22.80
2023-09-27T00:30:24.695Z,22.50
2023-09-27T00:30:34.728Z,22.60
2023-09-27T00:30:44.765Z,22.60
2023-09-27T00:30:54.791Z,23.00
2023-09-27T00:31:04.824Z,23.00
2023-09-27T00:31:14.859Z,22.50
2023-09-27T00:31:24.898Z,21.80
2023-09-27T00:31:34.985Z,21.60
2023-09-27T00:31:45.036Z,21.60
2023-09-27T00:31:55.076Z,21.70
2023-09-27T00:32:05.269Z,21.70
2023-09-27T00:32:15.263Z,21.70
2023-09-27T00:32:25.380Z,22.40
2023-09-27T00:32:35.465Z,22.10
2023-09-27T00:32:45.732Z,22.60
2023-09-27T00:32:55.719Z,21.90
2023-09-27T00:33:05.895Z,22.00
2023-09-27T00:33:15.996Z,21.70
2023-09-27T00:33:26.148Z,21.80
2023-09-27T00:33:36.042Z,21.90
2023-09-27T00:33:46.076Z,22.00
2023-09-27T00:33:56.244Z,22.20
2023-09-27T00:34:06.298Z,22.40
2023-09-27T00:34:16.322Z,22.30
2023-09-27T00:34:26.362Z,22.40
2023-09-27T00:34:36.403Z,22.90
2023-09-27T00:34:46.435Z,22.40
2023-09-27T00:34:56.505Z,22.20
2023-09-27T00:35:08.033Z,21.70
2023-09-27T00:35:16.715Z,21.70
2023-09-27T00:35:26.674Z,22.00
2023-09-27T00:35:36.852Z,21.60
2023-09-27T00:35:46.993Z,21.80
2023-09-27T00:35:57.162Z,21.80
2023-09-27T00:36:07.323Z,22.80
2023-09-27T00:36:17.497Z,23.20
2023-09-27T00:36:27.664Z,22.70
2023-09-27T00:36:37.680Z,22.00
2023-09-27T00:36:47.674Z,21.80
2023-09-27T00:36:57.834Z,22.30
2023-09-27T00:37:08.001Z,23.10
2023-09-27T00:37:18.171Z,22.70
2023-09-27T00:37:28.330Z,22.20
2023-09-27T00:37:38.362Z,22.10
2023-09-27T00:37:48.522Z,23.00
2023-09-27T00:37:58.428Z,23.70
2023-09-27T00:38:08.611Z,22.90
2023-09-27T00:38:18.640Z,22.90
2023-09-27T00:38:28.727Z,22.00
2023-09-27T00:38:38.746Z,22.40
2023-09-27T00:38:48.885Z,21.80
2023-09-27T00:38:59.048Z,22.30
2023-09-27T00:39:09.123Z,22.50
2023-09-27T00:39:19.159Z,22.20
2023-09-27T00:39:29.308Z,22.50
2023-09-27T00:39:39.470Z,21.60
2023-09-27T00:39:49.642Z,21.90
2023-09-27T00:39:59.809Z,21.40
2023-09-27T00:40:09.969Z,22.10
2023-09-27T00:40:20.122Z,22.20
2023-09-27T00:40:30.074Z,22.10
2023-09-27T00:40:40.242Z,21.90
2023-09-27T00:40:50.300Z,22.40
2023-09-27T00:41:00.438Z,22.10
2023-09-27T00:41:10.637Z,22.30
2023-09-27T00:41:20.735Z,21.50
2023-09-27T00:41:30.723Z,21.20
2023-09-27T00:41:40.724Z,21.40
2023-09-27T00:41:50.889Z,22.20
2023-09-27T00:42:00.878Z,22.50
2023-09-27T00:42:11.052Z,22.30
2023-09-27T00:42:21.047Z,22.00
2023-09-27T00:42:31.133Z,22.20
2023-09-27T00:42:41.315Z,22.10
2023-09-27T00:42:51.480Z,21.80
2023-09-27T00:43:01.638Z,21.90
2023-09-27T00:43:11.794Z,21.80
2023-09-27T00:43:21.972Z,21.80
2023-09-27T00:43:31.997Z,22.20
2023-09-27T00:43:42.141Z,22.20
2023-09-27T00:43:52.338Z,22.00
2023-09-27T00:44:02.393Z,21.70
2023-09-27T00:44:12.488Z,21.20
2023-09-27T00:44:22.548Z,21.80
2023-09-27T00:44:32.662Z,21.60
2023-09-27T00:44:42.696Z,21.80
2023-09-27T00:44:52.730Z,21.80
2023-09-27T00:45:02.794Z,22.60
2023-09-27T00:45:12.825Z,23.00
2023-09-27T00:45:22.840Z,22.60
2023-09-27T00:45:32.883Z,22.50
2023-09-27T00:45:42.909Z,22.70
2023-09-27T00:45:53.044Z,23.00
2023-09-27T00:46:03.090Z,22.90
2023-09-27T00:46:13.188Z,23.00
2023-09-27T00:46:23.264Z,23.90
2023-09-27T00:46:33.296Z,24.60
2023-09-27T00:46:43.302Z,24.10
2023-09-27T00:46:53.382Z,22.90
2023-09-27T00:47:03.425Z,21.90
2023-09-27T00:47:13.513Z,22.40
2023-09-27T00:47:23.568Z,22.10
2023-09-27T00:47:33.581Z,22.60
2023-09-27T00:47:43.667Z,22.90
2023-09-27T00:47:53.727Z,24.20
2023-09-27T00:48:03.741Z,24.70
2023-09-27T00:48:13.817Z,24.50
2023-09-27T00:48:23.879Z,23.90
2023-09-27T00:48:33.927Z,23.20
2023-09-27T00:48:43.958Z,23.80
2023-09-27T00:48:54.240Z,24.30
2023-09-27T00:49:04.107Z,24.90
2023-09-27T00:49:14.121Z,25.00
2023-09-27T00:49:24.145Z,24.40
2023-09-27T00:49:34.181Z,24.40
2023-09-27T00:49:44.211Z,23.90
2023-09-27T00:49:54.448Z,23.40
2023-09-27T00:50:04.349Z,23.00
2023-09-27T00:50:14.485Z,22.80
2023-09-27T00:50:24.551Z,24.00
2023-09-27T00:50:34.617Z,23.20
2023-09-27T00:50:44.659Z,24.10
2023-09-27T00:50:54.685Z,23.30
2023-09-27T00:51:04.743Z,24.70
2023-09-27T00:51:14.764Z,24.20
2023-09-27T00:51:24.818Z,24.20
2023-09-27T00:51:34.832Z,23.10
2023-09-27T00:51:44.869Z,22.70
2023-09-27T00:51:54.962Z,22.40
2023-09-27T00:52:04.968Z,21.90
2023-09-27T00:52:15.051Z,22.50
2023-09-27T00:52:25.135Z,24.00
2023-09-27T00:52:35.189Z,25.20
2023-09-27T00:52:45.228Z,25.30
2023-09-27T00:52:55.355Z,23.80
2023-09-27T00:53:05.371Z,22.70
2023-09-27T00:53:15.409Z,21.80
2023-09-27T00:53:25.498Z,22.00
2023-09-27T00:53:35.562Z,22.60
2023-09-27T00:53:45.614Z,22.50
2023-09-27T00:53:55.636Z,22.60
2023-09-27T00:54:05.674Z,22.40
2023-09-27T00:54:15.712Z,22.80
2023-09-27T00:54:25.751Z,22.20
2023-09-27T00:54:35.782Z,21.60
2023-09-27T00:54:45.830Z,21.30
2023-09-27T00:54:55.859Z,22.20
2023-09-27T00:55:05.900Z,23.40
2023-09-27T00:55:15.916Z,23.40
2023-09-27T00:55:25.946Z,22.90
2023-09-27T00:55:35.992Z,21.80
2023-09-27T00:55:46.019Z,22.70
2023-09-27T00:55:56.075Z,22.90
2023-09-27T00:56:07.461Z,23.40
2023-09-27T00:56:16.331Z,22.70
2023-09-27T00:56:26.358Z,22.00
2023-09-27T00:56:36.444Z,21.60
2023-09-27T00:56:46.448Z,21.70
2023-09-27T00:56:56.595Z,21.60
2023-09-27T00:57:06.623Z,22.00
2023-09-27T00:57:16.720Z,22.30
2023-09-27T00:57:26.759Z,21.80
2023-09-27T00:57:36.793Z,21.30
2023-09-27T00:57:46.817Z,21.30
2023-09-27T00:57:56.867Z,23.10
2023-09-27T00:58:06.902Z,24.30
2023-09-27T00:58:16.950Z,24.50
2023-09-27T00:58:26.964Z,23.70
2023-09-27T00:58:37.017Z,22.90
2023-09-27T00:58:47.045Z,23.20
2023-09-27T00:58:57.086Z,23.40
2023-09-27T00:59:07.208Z,24.00
2023-09-27T00:59:17.277Z,23.50
2023-09-27T00:59:27.361Z,23.80
2023-09-27T00:59:37.400Z,22.90
2023-09-27T00:59:47.400Z,22.30
2023-09-27T00:59:57.434Z,21.80
2023-09-27T01:00:07.459Z,22.10
2023-09-27T01:00:17.520Z,22.30
2023-09-27T01:00:27.618Z,22.90
2023-09-27T01:00:37.655Z,23.10
2023-09-27T01:00:47.728Z,23.00
2023-09-27T01:00:57.758Z,22.80
2023-09-27T01:01:07.823Z,21.90
2023-09-27T01:01:17.896Z,21.80
2023-09-27T01:01:27.969Z,21.80
2023-09-27T01:01:38.071Z,22.80
2023-09-27T01:01:48.125Z,22.90
2023-09-27T01:01:58.326Z,22.10
2023-09-27T01:02:08.347Z,22.20
2023-09-27T01:02:18.381Z,22.00
2023-09-27T01:02:28.433Z,23.10
2023-09-27T01:02:38.543Z,22.60
2023-09-27T01:02:48.668Z,22.90
2023-09-27T01:02:58.778Z,21.90
2023-09-27T01:03:08.821Z,21.60
2023-09-27T01:03:18.952Z,21.70
2023-09-27T01:03:29.152Z,22.30
2023-09-27T01:03:39.050Z,22.40
2023-09-27T01:03:49.153Z,22.10
2023-09-27T01:03:59.192Z,21.60
2023-09-27T01:04:09.235Z,22.20
2023-09-27T01:04:19.277Z,22.50
2023-09-27T01:04:29.301Z,22.30
2023-09-27T01:04:39.343Z,21.40
2023-09-27T01:04:49.406Z,22.10
2023-09-27T01:04:59.429Z,22.70
2023-09-27T01:05:09.538Z,24.00
2023-09-27T01:05:19.990Z,23.20
2023-09-27T01:05:29.670Z,23.40
2023-09-27T01:05:39.827Z,23.60
2023-09-27T01:05:49.884Z,23.80
2023-09-27T01:05:59.961Z,26.40
2023-09-27T01:06:10.016Z,30.50
2023-09-27T01:06:20.109Z,41.50
2023-09-27T01:06:30.148Z,56.00
2023-09-27T01:06:40.188Z,70.30
2023-09-27T01:06:50.219Z,75.00
2023-09-27T01:07:00.263Z,72.50
2023-09-27T01:07:10.313Z,69.00
2023-09-27T01:07:20.331Z,70.00
2023-09-27T01:07:30.367Z,70.00
2023-09-27T01:07:40.402Z,69.50
2023-09-27T01:07:50.503Z,69.70
2023-09-27T01:08:00.515Z,71.50
2023-09-27T01:08:10.609Z,74.80
2023-09-27T01:08:20.716Z,76.30
2023-09-27T01:08:30.761Z,76.00
2023-09-27T01:08:40.882Z,72.10
2023-09-27T01:08:51.121Z,63.70
2023-09-27T01:09:01.093Z,58.70
2023-09-27T01:09:11.133Z,55.40
2023-09-27T01:09:21.172Z,55.60
2023-09-27T01:09:31.217Z,53.70
2023-09-27T01:09:41.269Z,51.90
2023-09-27T01:09:51.309Z,49.60
2023-09-27T01:10:01.376Z,47.70
2023-09-27T01:10:11.398Z,45.30
2023-09-27T01:10:21.433Z,43.60
2023-09-27T01:10:31.452Z,42.00
2023-09-27T01:10:41.503Z,39.70
2023-09-27T01:10:51.566Z,37.70
2023-09-27T01:11:01.594Z,36.00
2023-09-27T01:11:11.633Z,34.30
2023-09-27T01:11:21.691Z,33.80
2023-09-27T01:11:31.742Z,33.20
2023-09-27T01:11:41.789Z,32.70
2023-09-27T01:11:51.860Z,31.50
2023-09-27T01:12:01.889Z,29.90
2023-09-27T01:12:12.039Z,28.80
2023-09-27T01:12:22.109Z,27.80
2023-09-27T01:12:32.170Z,27.90
2023-09-27T01:12:42.199Z,27.40
2023-09-27T01:12:52.247Z,27.10
2023-09-27T01:13:02.296Z,25.60
2023-09-27T01:13:12.393Z,24.90
2023-09-27T01:13:22.451Z,24.40
2023-09-27T01:13:32.460Z,24.50
2023-09-27T01:13:42.505Z,24.40
2023-09-27T01:13:52.559Z,24.10
2023-09-27T01:14:02.654Z,23.60
2023-09-27T01:14:12.763Z,23.30
2023-09-27T01:14:22.878Z,24.00
2023-09-27T01:14:32.875Z,24.10
2023-09-27T01:14:42.962Z,23.90
2023-09-27T01:14:53.004Z,23.50
2023-09-27T01:15:03.042Z,23.90
2023-09-27T01:15:13.147Z,24.50
2023-09-27T01:15:23.136Z,24.10
2023-09-27T01:15:33.153Z,23.70
2023-09-27T01:15:43.209Z,23.10
2023-09-27T01:15:53.249Z,23.70
2023-09-27T01:16:03.347Z,23.50
2023-09-27T01:16:13.411Z,23.80
2023-09-27T01:16:23.497Z,23.50
2023-09-27T01:16:33.546Z,23.60
2023-09-27T01:16:43.610Z,23.70
2023-09-27T01:16:53.624Z,23.90
2023-09-27T01:17:03.674Z,23.50
2023-09-27T01:17:13.685Z,23.50
2023-09-27T01:17:23.793Z,22.80
2023-09-27T01:17:33.879Z,22.70
2023-09-27T01:17:44.002Z,22.30
2023-09-27T01:17:54.097Z,22.90
2023-09-27T01:18:04.215Z,23.20
2023-09-27T01:18:14.315Z,22.80
2023-09-27T01:18:24.345Z,23.30
2023-09-27T01:18:34.377Z,22.70
2023-09-27T01:18:44.437Z,22.80
2023-09-27T01:18:55.165Z,22.20
2023-09-27T01:19:04.644Z,23.00
2023-09-27T01:19:14.705Z,23.10
2023-09-27T01:19:24.737Z,22.90
2023-09-27T01:19:34.776Z,22.30
2023-09-27T01:19:44.834Z,22.00
2023-09-27T01:19:54.904Z,22.00
2023-09-27T01:20:04.966Z,21.70
2023-09-27T01:20:15.090Z,21.90
2023-09-27T01:20:25.133Z,22.20
2023-09-27T01:20:35.212Z,22.00
2023-09-27T01:20:45.232Z,22.10
2023-09-27T01:20:55.269Z,22.30
2023-09-27T01:21:05.305Z,23.40
2023-09-27T01:21:15.372Z,23.70
2023-09-27T01:21:25.380Z,23.50
2023-09-27T01:21:35.411Z,22.40
2023-09-27T01:21:45.446Z,21.50
2023-09-27T01:21:55.486Z,21.80
2023-09-27T01:22:05.524Z,21.50
2023-09-27T01:22:15.567Z,22.20
2023-09-27T01:22:25.604Z,22.00
2023-09-27T01:22:35.643Z,22.50
2023-09-27T01:22:45.682Z,22.30
2023-09-27T01:22:55.724Z,22.70
2023-09-27T01:23:05.759Z,22.30
2023-09-27T01:23:15.834Z,22.20
2023-09-27T01:23:25.953Z,21.30
2023-09-27T01:23:36.065Z,21.80
2023-09-27T01:23:46.105Z,22.70
2023-09-27T01:23:56.171Z,22.90
2023-09-27T01:24:06.219Z,23.50
2023-09-27T01:24:16.303Z,23.00
2023-09-27T01:24:26.358Z,23.10
2023-09-27T01:24:36.394Z,22.30
2023-09-27T01:24:46.465Z,22.10
2023-09-27T01:24:56.511Z,22.30
2023-09-27T01:25:06.537Z,22.10
2023-09-27T01:25:16.572Z,21.70
2023-09-27T01:25:26.604Z,21.30
2023-09-27T01:25:36.644Z,21.20
2023-09-27T01:25:46.764Z,22.20
2023-09-27T01:25:56.836Z,22.40
2023-09-27T01:26:06.876Z,22.80
2023-09-27T01:26:16.933Z,22.80
2023-09-27T01:26:27.004Z,23.40
2023-09-27T01:26:37.031Z,22.90
2023-09-27T01:26:47.072Z,23.10
2023-09-27T01:26:57.111Z,23.30
2023-09-27T01:27:07.141Z,23.40
2023-09-27T01:27:17.173Z,22.90
2023-09-27T01:27:27.214Z,22.90
2023-09-27T01:27:37.274Z,23.70
2023-09-27T01:27:47.309Z,24.40
2023-09-27T01:27:57.341Z,24.50
2023-09-27T01:28:07.379Z,23.80
2023-09-27T01:28:17.411Z,23.20
2023-09-27T01:28:27.459Z,22.60
2023-09-27T01:28:37.503Z,22.40
2023-09-27T01:28:47.560Z,22.70
2023-09-27T01:28:57.655Z,22.50
2023-09-27T01:29:07.694Z,22.60
2023-09-27T01:29:17.744Z,23.00
2023-09-27T01:29:27.795Z,23.00
2023-09-27T01:29:37.818Z,22.40
2023-09-27T01:29:47.864Z,22.00
2023-09-27T01:29:57.874Z,22.40
2023-09-27T01:30:07.960Z,23.20
2023-09-27T01:30:18.013Z,23.00
2023-09-27T01:30:28.114Z,23.00
2023-09-27T01:30:38.140Z,22.20
2023-09-27T01:30:48.190Z,22.10
2023-09-27T01:30:58.236Z,21.60
2023-09-27T01:31:08.291Z,21.70
2023-09-27T01:31:18.457Z,22.00
2023-09-27T01:31:28.526Z,21.60
2023-09-27T01:31:38.600Z,21.90
2023-09-27T01:31:48.709Z,21.50
2023-09-27T01:31:58.855Z,22.00
2023-09-27T01:32:08.917Z,22.40
2023-09-27T01:32:19.017Z,22.50
2023-09-27T01:32:29.220Z,23.00
2023-09-27T01:32:39.303Z,22.40
2023-09-27T01:32:49.218Z,22.70
2023-09-27T01:32:59.328Z,22.20
2023-09-27T01:33:09.478Z,23.10
2023-09-27T01:33:19.409Z,23.40
2023-09-27T01:33:29.560Z,23.10
2023-09-27T01:33:39.723Z,22.80
2023-09-27T01:33:49.733Z,22.90
2023-09-27T01:33:59.753Z,23.00
2023-09-27T01:34:09.784Z,22.70
2023-09-27T01:34:19.819Z,21.60
2023-09-27T01:34:29.894Z,21.80
2023-09-27T01:34:39.906Z,22.10
2023-09-27T01:34:50.035Z,22.50
2023-09-27T01:35:00.130Z,22.20
2023-09-27T01:35:10.245Z,22.50
2023-09-27T01:35:20.342Z,22.80
2023-09-27T01:35:30.399Z,23.50
2023-09-27T01:35:40.397Z,23.80
2023-09-27T01:35:50.434Z,24.00
2023-09-27T01:36:00.462Z,23.80
2023-09-27T01:36:10.506Z,23.30
2023-09-27T01:36:20.516Z,22.60
2023-09-27T01:36:30.544Z,22.60
2023-09-27T01:36:40.574Z,22.70
2023-09-27T01:36:50.600Z,22.60
2023-09-27T01:37:00.636Z,22.20
2023-09-27T01:37:10.672Z,21.70
2023-09-27T01:37:20.721Z,22.60
2023-09-27T01:37:30.770Z,23.20
2023-09-27T01:37:40.807Z,23.60
2023-09-27T01:37:50.842Z,23.20
2023-09-27T01:38:00.921Z,23.60
2023-09-27T01:38:10.986Z,23.80
2023-09-27T01:38:21.028Z,24.20
2023-09-27T01:38:31.096Z,23.70
2023-09-27T01:38:41.096Z,24.80
2023-09-27T01:38:51.290Z,25.60
2023-09-27T01:39:01.335Z,26.40
2023-09-27T01:39:11.370Z,26.70
2023-09-27T01:39:21.440Z,25.60
2023-09-27T01:39:31.500Z,25.80
2023-09-27T01:39:41.508Z,24.50
2023-09-27T01:39:51.530Z,24.00
2023-09-27T01:40:01.569Z,23.00
2023-09-27T01:40:11.590Z,23.50
2023-09-27T01:40:21.629Z,23.80
2023-09-27T01:40:31.851Z,24.30
2023-09-27T01:40:41.700Z,23.50
2023-09-27T01:40:51.764Z,24.10
2023-09-27T01:41:01.811Z,23.60
2023-09-27T01:41:11.893Z,23.30
2023-09-27T01:41:21.961Z,22.70
2023-09-27T01:41:32.023Z,22.90
2023-09-27T01:41:42.022Z,23.30
2023-09-27T01:41:52.072Z,23.20
2023-09-27T01:42:02.109Z,23.00
2023-09-27T01:42:12.174Z,23.50
2023-09-27T01:42:22.216Z,23.20
2023-09-27T01:42:32.260Z,23.20
2023-09-27T01:42:42.352Z,22.50
2023-09-27T01:42:52.381Z,23.10
2023-09-27T01:43:02.494Z,22.40
2023-09-27T01:43:12.534Z,22.10
2023-09-27T01:43:22.590Z,22.40
2023-09-27T01:43:32.617Z,23.00
2023-09-27T01:43:42.797Z,23.20
2023-09-27T01:43:52.866Z,23.10
2023-09-27T01:44:02.919Z,22.90
2023-09-27T01:44:12.916Z,22.40
2023-09-27T01:44:22.947Z,22.10
2023-09-27T01:44:33.159Z,22.40
2023-09-27T01:44:43.146Z,23.10
2023-09-27T01:44:53.337Z,23.60
2023-09-27T01:45:03.323Z,23.40
2023-09-27T01:45:13.334Z,23.10
2023-09-27T01:45:23.340Z,22.60
2023-09-27T01:45:33.542Z,21.80
2023-09-27T01:45:43.622Z,22.00
2023-09-27T01:45:53.618Z,22.60
2023-09-27T01:46:03.618Z,23.80
2023-09-27T01:46:13.710Z,24.80
2023-09-27T01:46:23.777Z,24.10
2023-09-27T01:46:33.792Z,23.60
2023-09-27T01:46:43.818Z,22.50
2023-09-27T01:46:53.823Z,22.60
2023-09-27T01:47:03.864Z,23.60
2023-09-27T01:47:13.871Z,23.80
2023-09-27T01:47:23.976Z,24.50
2023-09-27T01:47:34.029Z,24.40
2023-09-27T01:47:44.145Z,24.50
2023-09-27T01:47:54.146Z,24.50
2023-09-27T01:48:04.200Z,23.60
2023-09-27T01:48:14.285Z,23.50
2023-09-27T01:48:24.301Z,23.00
2023-09-27T01:48:34.270Z,22.60
2023-09-27T01:48:44.270Z,22.80
2023-09-27T01:48:54.458Z,23.00
2023-09-27T01:49:04.363Z,23.60
2023-09-27T01:49:14.538Z,23.40
2023-09-27T01:49:24.536Z,22.60
2023-09-27T01:49:34.707Z,22.20
2023-09-27T01:49:44.698Z,22.30
2023-09-27T01:49:54.747Z,22.30
2023-09-27T01:50:04.769Z,22.30
2023-09-27T01:50:14.828Z,22.70
2023-09-27T01:50:24.953Z,23.20
2023-09-27T01:51:13.260Z,21.40
2023-09-27T01:51:23.296Z,22.60
2023-09-27T01:51:33.346Z,23.00
2023-09-27T01:51:43.371Z,23.70
2023-09-27T01:51:53.434Z,22.80
2023-09-27T01:52:03.467Z,23.40
2023-09-27T01:52:13.512Z,22.60
2023-09-27T01:52:23.532Z,23.60
2023-09-27T01:52:33.572Z,23.30
2023-09-27T01:52:43.617Z,23.70
2023-09-27T01:52:53.697Z,23.10
2023-09-27T01:53:03.703Z,23.00
2023-09-27T01:53:13.759Z,23.30
2023-09-27T01:53:23.823Z,23.80
2023-09-27T01:53:33.924Z,23.60
2023-09-27T01:53:43.923Z,23.70
2023-09-27T01:53:53.974Z,23.20
2023-09-27T01:54:04.040Z,23.70
2023-09-27T01:54:14.118Z,23.80
2023-09-27T01:54:24.160Z,24.30
2023-09-27T01:54:34.207Z,24.70
2023-09-27T01:54:44.243Z,25.20
2023-09-27T01:54:54.304Z,25.80
2023-09-27T01:55:04.340Z,25.50
2023-09-27T01:55:14.369Z,25.10
2023-09-27T01:55:24.413Z,24.60
2023-09-27T01:55:34.452Z,24.70
2023-09-27T01:55:44.512Z,25.50
2023-09-27T01:55:54.574Z,25.80
2023-09-27T01:56:04.612Z,27.00
2023-09-27T01:56:14.680Z,27.20
2023-09-27T01:56:24.747Z,26.90
2023-09-27T01:56:34.803Z,25.50
2023-09-27T01:56:44.880Z,24.50
2023-09-27T01:56:54.926Z,24.40
2023-09-27T01:57:04.977Z,25.60
2023-09-27T01:57:14.994Z,26.40
2023-09-27T01:57:25.025Z,27.20
2023-09-27T01:57:35.050Z,27.10
2023-09-27T01:57:45.088Z,26.70
2023-09-27T01:57:55.105Z,26.30
2023-09-27T01:58:05.155Z,25.40
2023-09-27T01:58:15.219Z,25.90
2023-09-27T01:58:25.235Z,26.10
2023-09-27T01:58:35.273Z,26.50
2023-09-27T01:58:45.282Z,27.20
2023-09-27T01:58:55.588Z,27.60
2023-09-27T01:59:05.512Z,27.40
2023-09-27T01:59:15.562Z,26.30
2023-09-27T01:59:25.634Z,26.00
2023-09-27T01:59:35.689Z,26.40
2023-09-27T01:59:45.704Z,28.10
2023-09-27T01:59:55.744Z,29.10
2023-09-27T02:00:05.777Z,28.60
2023-09-27T02:00:15.813Z,28.30
2023-09-27T02:00:25.825Z,28.00
2023-09-27T02:00:35.853Z,28.70
2023-09-27T02:00:45.883Z,28.30
2023-09-27T02:00:55.921Z,27.70
2023-09-27T02:01:06.012Z,27.80
2023-09-27T02:01:16.086Z,28.10
2023-09-27T02:01:26.191Z,28.60
2023-09-27T02:01:36.243Z,27.60
2023-09-27T02:01:46.314Z,27.30
2023-09-27T02:01:56.417Z,28.40
2023-09-27T02:02:06.520Z,29.10
2023-09-27T02:02:16.564Z,28.70
2023-09-27T02:02:26.610Z,27.10
2023-09-27T02:02:36.695Z,26.40
2023-09-27T02:02:46.764Z,26.50
2023-09-27T02:02:57.040Z,26.60
2023-09-27T02:03:07.003Z,27.00
2023-09-27T02:03:17.000Z,26.60
2023-09-27T02:03:27.086Z,26.50
2023-09-27T02:03:37.250Z,26.30
2023-09-27T02:03:47.282Z,27.30
2023-09-27T02:03:57.341Z,27.30
2023-09-27T02:04:07.431Z,27.30
2023-09-27T02:04:17.444Z,25.70
2023-09-27T02:04:27.481Z,25.80
2023-09-27T02:04:37.558Z,26.50
2023-09-27T02:04:47.608Z,26.80
2023-09-27T02:04:57.702Z,27.00
2023-09-27T02:05:07.833Z,26.50
2023-09-27T02:05:18.128Z,27.20
2023-09-27T02:05:28.044Z,26.60
2023-09-27T02:05:38.058Z,27.30
2023-09-27T02:05:48.120Z,27.20
2023-09-27T02:05:58.238Z,26.90
2023-09-27T02:06:08.336Z,26.10
2023-09-27T02:06:18.374Z,26.30
2023-09-27T02:06:28.396Z,27.10
2023-09-27T02:06:38.426Z,27.50
2023-09-27T02:06:48.504Z,26.90
2023-09-27T02:06:58.531Z,27.10
2023-09-27T02:07:08.559Z,26.70
2023-09-27T02:07:18.598Z,26.80
2023-09-27T02:07:28.645Z,26.00
2023-09-27T02:07:38.668Z,26.40
2023-09-27T02:07:48.718Z,25.80
2023-09-27T02:07:58.820Z,26.10
2023-09-27T02:08:08.933Z,25.90
2023-09-27T02:08:18.993Z,26.50
2023-09-27T02:08:29.035Z,25.40
2023-09-27T02:08:39.069Z,24.70
2023-09-27T02:08:49.091Z,24.60
2023-09-27T02:08:59.126Z,25.80
2023-09-27T02:09:09.234Z,26.50
2023-09-27T02:09:19.267Z,25.90
2023-09-27T02:09:29.361Z,25.60
2023-09-27T02:09:39.430Z,25.60
2023-09-27T02:09:49.484Z,25.60
2023-09-27T02:09:59.518Z,26.40
2023-09-27T02:10:09.582Z,26.70